Alvada, Ohio
Current Conditions -  °F | °C
As of 1:53 AM on Sunday 23 Nov 2014 (Local Time) from KFDY Reporting Station
Overcast Overcast  
Wind Chill: 50°   Ceiling: 5000
Heat Index: 50°   Visibility: 10mi
Dew Point: 38°   Wind: 13mph
Humidity: 63%   Direction: 190°S
Pressure: 29.99"   Gusts: NA
Location:  41.05°N, 83.4°W
Report Text: KFDY 230653Z AUTO 19011KT 10SM SCT042 OVC050 10/03 A2999 RMK AO2 SLP154 T01000033
Loading
Personal Weather Stations






























Interactive Weather Map New forecast layout! Learn more

10-Day Weather Forecast

Advertisements
Track Severe Weather on mobile